Time;durP1;ratioP1;P1;durP2;ratioP2;P2;SDS_P1;SDS_P2;PMS_P1;PMS_P2;Temp;Humidity;BMP_temperature;BMP_pressure;BME280_temperature;BME280_humidity;BME280_pressure;Samples;Min_cycle;Max_cycle;Signal;HPM_P1;HPM_P2
2023/08/29 07:01:26;;;;;;;0.20;0.20;;;16.90;99.90;21.30;100979.00;;;;6216946;22;1423022;-69
2023/08/29 07:04:00;;;;;;;0.30;0.30;;;17.70;99.90;22.10;101015.00;;;;6309488;22;20496;-69
2023/08/29 07:06:26;;;;;;;1.23;1.23;;;18.20;99.90;22.60;101010.00;;;;6307630;22;20170;-69
2023/08/29 07:08:54;;;;;;;0.73;0.73;;;18.50;99.90;23.50;101033.00;;;;6309309;22;20151;-69
2023/08/29 07:11:23;;;;;;;0.30;0.30;;;19.10;99.90;23.50;101035.00;;;;6307883;22;20156;-69
2023/08/29 07:13:54;;;;;;;0.30;0.30;;;19.40;99.90;23.70;101020.00;;;;6309514;22;20437;-69
2023/08/29 07:16:23;;;;;;;0.20;0.20;;;19.50;99.90;24.30;101036.00;;;;6309520;22;20183;-69
2023/08/29 07:18:49;;;;;;;0.20;0.20;;;20.00;99.90;24.60;100998.00;;;;6309427;22;20151;-72
2023/08/29 07:21:16;;;;;;;0.20;0.20;;;20.30;99.90;25.00;101036.00;;;;6308043;22;20277;-71
2023/08/29 07:23:47;;;;;;;0.20;0.20;;;20.60;99.90;24.80;101051.00;;;;6308833;22;20168;-71
2023/08/29 07:26:15;;;;;;;0.20;0.20;;;20.70;99.90;24.80;101046.00;;;;6282037;22;20156;-70
2023/08/29 07:28:44;;;;;;;0.20;0.20;;;20.70;99.90;25.30;101056.00;;;;6307744;22;20156;-70
2023/08/29 07:31:22;;;;;;;0.22;0.22;;;20.90;99.90;23.60;101028.00;;;;6308833;22;20152;-70
2023/08/29 07:33:48;;;;;;;4.38;1.58;;;20.50;99.90;23.30;101038.00;;;;6307438;22;20155;-70
2023/08/29 07:36:23;;;;;;;0.50;0.50;;;20.20;99.90;22.00;101005.00;;;;6307689;22;20480;-69
2023/08/29 07:39:18;;;;;;;0.32;0.32;;;19.40;99.90;21.60;101009.00;;;;6309004;22;20212;-70
2023/08/29 07:41:45;;;;;;;1.23;1.13;;;18.90;99.90;21.80;101003.00;;;;6309041;22;20202;-70
2023/08/29 07:44:14;;;;;;;0.75;0.75;;;18.80;99.90;21.70;101010.00;;;;6309336;22;20148;-71
2023/08/29 07:46:56;;;;;;;1.73;0.75;;;18.50;99.90;21.00;101008.00;;;;6307819;22;20152;-70
2023/08/29 07:49:22;;;;;;;2.72;2.53;;;18.40;99.90;22.00;101011.00;;;;6307596;22;20140;-70
2023/08/29 07:51:52;;;;;;;0.30;0.30;;;18.40;99.90;22.20;101020.00;;;;6306774;22;20140;-70
2023/08/29 07:54:19;;;;;;;0.10;0.10;;;18.70;99.90;22.20;101016.00;;;;6307855;22;20144;-70
2023/08/29 07:56:49;;;;;;;0.20;0.20;;;18.90;99.90;22.90;101020.00;;;;6307589;22;20140;-70
2023/08/29 07:59:15;;;;;;;0.30;0.30;;;19.10;99.90;23.30;101016.00;;;;6306663;22;20569;-70
2023/08/29 08:01:44;;;;;;;0.20;0.20;;;19.60;99.90;24.70;101029.00;;;;6310283;22;20243;-70
2023/08/29 08:04:19;;;;;;;0.10;0.10;;;20.20;99.90;24.70;101026.00;;;;6307378;22;20141;-70
2023/08/29 08:06:53;;;;;;;0.52;0.52;;;20.50;99.90;24.70;101035.00;;;;6306736;22;20136;-70
2023/08/29 08:09:19;;;;;;;0.10;0.10;;;21.00;99.90;25.60;101050.00;;;;6307234;22;20586;-70
2023/08/29 08:11:46;;;;;;;1.75;1.65;;;21.30;99.90;25.20;101065.00;;;;6308849;22;20214;-70
2023/08/29 08:14:17;;;;;;;0.10;0.10;;;21.50;99.90;26.50;101079.00;;;;6281808;22;20157;-70
2023/08/29 08:16:43;;;;;;;0.77;0.75;;;21.90;99.90;23.60;101071.00;;;;6307042;22;20160;-70
2023/08/29 08:19:12;;;;;;;0.30;0.30;;;21.00;99.90;23.90;101036.00;;;;6281457;22;20203;-70
2023/08/29 08:21:46;;;;;;;0.20;0.20;;;20.50;99.90;25.30;101043.00;;;;6280970;22;20164;-70
2023/08/29 08:24:15;;;;;;;0.20;0.20;;;21.00;99.90;26.00;101086.00;;;;6307083;22;20565;-70
2023/08/29 08:26:50;;;;;;;0.10;0.10;;;21.50;99.90;26.80;101106.00;;;;6306958;22;20160;-70
2023/08/29 08:29:21;;;;;;;0.85;0.85;;;22.10;99.90;26.10;101111.00;;;;6307071;22;20168;-70
2023/08/29 08:31:47;;;;;;;0.10;0.10;;;22.10;99.90;26.80;101112.00;;;;6282076;22;20626;-70
2023/08/29 08:34:16;;;;;;;0.10;0.10;;;22.20;99.90;27.00;101127.00;;;;6306763;22;20196;-70
2023/08/29 08:36:46;;;;;;;0.93;0.35;;;22.50;99.90;25.60;101118.00;;;;6281028;22;20183;-70
2023/08/29 08:39:26;;;;;;;0.95;0.95;;;21.90;99.90;26.40;101133.00;;;;6308564;22;20228;-70
2023/08/29 08:41:53;;;;;;;6.93;0.88;;;22.20;99.90;23.30;101086.00;;;;6306911;22;20168;-70
2023/08/29 08:44:23;;;;;;;0.10;0.10;;;20.90;99.90;23.90;101045.00;;;;6307301;22;20171;-70
2023/08/29 08:46:50;;;;;;;0.60;0.60;;;20.50;99.90;24.00;101073.00;;;;6306953;22;20144;-70
2023/08/29 08:49:24;;;;;;;0.17;0.17;;;20.90;99.90;23.60;101029.00;;;;6306531;22;20156;-70
2023/08/29 08:51:54;;;;;;;0.10;0.10;;;20.50;99.90;24.90;101057.00;;;;6280688;22;20162;-70
2023/08/29 08:54:20;;;;;;;0.32;0.32;;;20.90;99.90;25.40;101061.00;;;;6307063;22;20167;-70
2023/08/29 08:56:48;;;;;;;1.08;0.82;;;21.30;99.90;25.00;101085.00;;;;6281032;22;20209;-70
2023/08/29 08:59:15;;;;;;;0.20;0.20;;;21.50;99.90;26.90;101091.00;;;;6306585;22;20141;-71
2023/08/29 09:01:44;;;;;;;0.65;0.65;;;22.30;99.90;24.50;101106.00;;;;6306822;22;20218;-69
2023/08/29 09:04:19;;;;;;;0.10;0.10;;;21.80;99.90;24.00;101042.00;;;;6306873;22;20144;-70
2023/08/29 09:07:03;;;;;;;1.58;1.33;;;21.30;99.90;24.60;101066.00;;;;6306784;22;20152;-70
2023/08/29 09:09:32;;;;;;;2.08;1.02;;;21.60;99.90;26.40;101056.00;;;;6306558;22;20197;-70
2023/08/29 09:12:00;;;;;;;0.63;0.50;;;22.50;99.90;23.70;101112.00;;;;6306577;22;20160;-69
2023/08/29 09:14:27;;;;;;;0.88;0.88;;;21.70;99.90;24.10;101083.00;;;;6280257;22;20687;-69
2023/08/29 09:16:57;;;;;;;0.20;0.20;;;21.30;99.90;23.30;101026.00;;;;6280676;22;20160;-70
2023/08/29 09:19:38;;;;;;;0.25;0.25;;;20.70;99.90;24.50;101052.00;;;;6306508;22;20193;-70
2023/08/29 09:22:07;;;;;;;0.40;0.40;;;21.00;99.90;23.90;101066.00;;;;6306391;22;20626;-70
2023/08/29 09:24:35;;;;;;;0.68;0.68;;;20.80;99.90;26.50;101048.00;;;;6306585;22;20199;-70
2023/08/29 09:27:10;;;;;;;1.08;0.85;;;21.80;99.90;27.10;101090.00;;;;6306361;22;20464;-70
2023/08/29 09:29:36;;;;;;;1.65;1.52;;;23.30;99.90;24.60;101111.00;;;;6307696;22;20556;-71
2023/08/29 09:32:32;;;;;;;6.65;5.25;;;22.20;99.90;25.30;101109.00;;;;6306538;22;20144;-71
2023/08/29 09:34:58;;;;;;;2.78;2.53;;;22.10;99.90;26.10;101116.00;;;;6148334;22;20650;-71
2023/08/29 09:37:29;;;;;;;0.80;0.28;;;22.50;99.90;24.80;101108.00;;;;6306526;22;20180;-71
2023/08/29 09:40:15;;;;;;;0.10;0.10;;;22.10;99.90;27.00;101103.00;;;;6306445;22;20561;-71
2023/08/29 09:43:03;;;;;;;0.13;0.13;;;22.80;99.90;26.30;101128.00;;;;6306291;22;20251;-71
2023/08/29 09:45:37;;;;;;;1.52;1.42;;;23.00;99.90;24.40;101132.00;;;;6307499;22;20143;-70
2023/08/29 09:48:10;;;;;;;0.32;0.32;;;22.00;99.90;25.40;101117.00;;;;6281554;22;20164;-70
2023/08/29 09:50:37;;;;;;;0.22;0.22;;;21.70;99.90;24.20;101100.00;;;;6306394;22;20144;-70
2023/08/29 09:53:13;;;;;;;1.20;1.10;;;21.50;99.90;23.60;101119.00;;;;6280646;22;20156;-70
2023/08/29 09:56:07;;;;;;;0.43;0.43;;;21.60;99.90;25.10;101073.00;;;;6280474;22;20492;-71
2023/08/29 09:58:38;;;;;;;0.10;0.10;;;21.50;99.90;25.40;101052.00;;;;6280477;22;20239;-70
2023/08/29 10:01:14;;;;;;;0.98;0.20;;;22.00;99.90;25.90;101088.00;;;;6305684;22;20164;-71
2023/08/29 10:03:47;;;;;;;0.43;0.43;;;22.00;99.90;25.00;101088.00;;;;6306079;22;20178;-70
2023/08/29 10:06:18;;;;;;;0.10;0.10;;;22.30;99.90;25.50;101105.00;;;;6306093;22;20159;-71
2023/08/29 10:08:55;;;;;;;0.75;0.70;;;21.80;99.90;27.70;101099.00;;;;6305953;22;20151;-70
2023/08/29 10:11:24;;;;;;;0.10;0.10;;;23.10;99.90;28.80;101087.00;;;;6280534;22;20156;-71
2023/08/29 10:13:53;;;;;;;0.13;0.13;;;24.10;99.90;29.70;101078.00;;;;6306301;22;20198;-72
2023/08/29 10:16:23;;;;;;;0.20;0.20;;;25.00;99.90;30.50;101064.00;;;;6305835;22;20141;-69
2023/08/29 10:18:50;;;;;;;0.10;0.10;;;25.60;99.90;30.30;101045.00;;;;6279948;22;20187;-71
2023/08/29 10:33:27;;;;;;;4.13;0.68;;;22.00;99.90;26.90;101044.00;;;;5070150;28;20617;-70
2023/08/29 10:36:04;;;;;;;1.67;1.58;;;22.80;99.90;27.50;101079.00;;;;5049144;28;20178;-70
2023/08/29 10:38:30;;;;;;;0.10;0.10;;;23.70;99.90;27.30;101079.00;;;;5048743;28;20189;-69
2023/08/29 10:41:06;;;;;;;0.10;0.10;;;23.20;99.90;28.10;101069.00;;;;5049821;28;20240;-70
2023/08/29 10:43:35;;;;;;;0.57;0.57;;;23.70;99.90;24.30;101119.00;;;;5032622;28;20601;-69
2023/08/29 10:46:10;;;;;;;0.75;0.75;;;22.20;99.90;23.90;101080.00;;;;5048716;28;20200;-70
2023/08/29 10:48:39;;;;;;;0.10;0.10;;;21.30;99.90;25.50;101071.00;;;;5072912;28;20197;-69
2023/08/29 10:51:13;;;;;;;1.30;1.20;;;21.50;99.90;25.90;101095.00;;;;5050047;28;20183;-69
2023/08/29 10:53:54;;;;;;;0.77;0.77;;;22.10;99.90;25.50;101100.00;;;;5050230;28;20193;-69
2023/08/29 10:56:42;;;;;;;0.20;0.20;;;22.30;99.90;24.90;101111.00;;;;5048788;28;20186;-69
2023/08/29 10:59:29;;;;;;;0.17;0.17;;;22.00;99.90;26.20;101042.00;;;;5049049;28;20273;-69
2023/08/29 11:02:32;;;;;;;0.68;0.68;;;22.10;99.90;27.10;101085.00;;;;5049296;28;20265;-69
2023/08/29 11:05:03;;;;;;;0.10;0.10;;;22.70;99.90;28.50;101079.00;;;;5048182;28;20184;-69
2023/08/29 11:07:32;;;;;;;0.10;0.10;;;23.70;99.90;29.00;101057.00;;;;5049884;28;20218;-69
2023/08/29 11:10:25;;;;;;;0.30;0.30;;;24.30;99.90;29.30;101012.00;;;;5048401;28;20213;-69
2023/08/29 11:13:12;;;;;;;0.10;0.10;;;24.60;99.90;28.60;101036.00;;;;5048511;28;20221;-70
2023/08/29 11:15:49;;;;;;;0.45;0.45;;;24.60;99.90;28.70;101047.00;;;;5047129;28;20274;-69
2023/08/29 11:18:32;;;;;;;0.10;0.10;;;24.40;99.90;28.30;101049.00;;;;5049283;28;20201;-69
2023/08/29 11:21:10;;;;;;;0.10;0.10;;;24.00;99.90;27.60;101048.00;;;;5048505;28;20189;-70
2023/08/29 11:23:45;;;;;;;0.20;0.20;;;23.70;99.90;27.80;101048.00;;;;5048613;28;20185;-70
2023/08/29 11:26:19;;;;;;;0.10;0.10;;;23.50;99.90;27.80;101053.00;;;;5048372;28;20260;-70
2023/08/29 11:28:47;;;;;;;0.35;0.35;;;23.40;99.90;27.40;101069.00;;;;5048114;28;20519;-69
2023/08/29 11:31:18;;;;;;;0.10;0.10;;;23.20;99.90;27.00;101088.00;;;;5047723;28;20225;-69
2023/08/29 11:33:47;;;;;;;0.13;0.13;;;23.00;99.90;27.50;101083.00;;;;5048176;28;20267;-69
2023/08/29 11:36:21;;;;;;;0.20;0.20;;;22.90;99.90;27.20;101088.00;;;;5029351;28;20187;-68
2023/08/29 11:38:50;;;;;;;0.20;0.20;;;22.80;99.90;26.90;101069.00;;;;5024748;28;20647;-69
2023/08/29 11:41:16;;;;;;;0.20;0.20;;;22.50;99.90;26.30;101119.00;;;;5031101;28;20199;-69
2023/08/29 11:43:45;;;;;;;0.10;0.10;;;22.40;99.90;26.40;101124.00;;;;5040801;28;20186;-68
2023/08/29 11:46:18;;;;;;;0.10;0.10;;;22.20;99.90;26.40;101120.00;;;;5034699;28;20183;-70
2023/08/29 11:49:37;;;;;;;0.20;0.20;;;22.10;99.90;26.10;101124.00;;;;5034669;28;20198;-69
2023/08/29 11:52:13;;;;;;;0.20;0.20;;;22.00;99.90;26.00;101140.00;;;;5034687;28;20195;-69
2023/08/29 11:54:54;;;;;;;0.20;0.20;;;21.80;99.90;26.20;101130.00;;;;5034216;28;20186;-69
2023/08/29 11:57:35;;;;;;;0.20;0.20;;;21.90;99.90;26.20;101121.00;;;;5018301;28;20190;-69
2023/08/29 12:00:19;;;;;;;0.20;0.20;;;21.80;99.90;26.10;101130.00;;;;5034243;28;20186;-69
2023/08/29 12:02:59;;;;;;;0.88;0.88;;;21.90;99.90;26.60;101127.00;;;;5034217;28;20194;-69
2023/08/29 12:05:46;;;;;;;0.20;0.20;;;22.10;99.90;26.30;101108.00;;;;5029720;28;20649;-69
2023/08/29 12:08:15;;;;;;;0.20;0.20;;;22.00;99.90;26.00;101121.00;;;;5034134;28;20221;-69
2023/08/29 12:10:54;;;;;;;0.20;0.20;;;21.90;99.90;25.90;101124.00;;;;5034364;28;20194;-68
2023/08/29 12:13:27;;;;;;;0.35;0.35;;;21.80;99.90;26.00;101099.00;;;;5033553;28;20226;-68
2023/08/29 12:15:57;;;;;;;0.20;0.20;;;21.80;99.90;26.30;101079.00;;;;5033861;28;20549;-69
2023/08/29 12:18:25;;;;;;;0.20;0.20;;;21.80;99.90;26.00;101123.00;;;;5017051;28;20198;-68
2023/08/29 12:21:32;;;;;;;0.20;0.20;;;21.80;99.90;26.30;101117.00;;;;5033796;28;20187;-69
2023/08/29 12:24:18;;;;;;;0.10;0.10;;;21.90;99.90;26.70;101114.00;;;;5034382;28;20203;-69
2023/08/29 12:26:44;;;;;;;0.20;0.20;;;22.10;99.90;26.80;101096.00;;;;5033582;28;20198;-68
2023/08/29 12:29:13;;;;;;;0.20;0.20;;;22.20;99.90;26.80;101115.00;;;;5033576;28;20194;-69
2023/08/29 12:31:39;;;;;;;0.10;0.10;;;22.20;99.90;26.80;101106.00;;;;5033531;28;20214;-69
2023/08/29 12:34:04;;;;;;;1.05;0.88;;;22.30;99.90;26.70;101109.00;;;;5031674;28;20209;-68
2023/08/29 12:36:57;;;;;;;0.15;0.15;;;22.40;99.90;26.60;101115.00;;;;5035286;28;20182;-68
2023/08/29 12:39:26;;;;;;;0.17;0.17;;;22.30;99.90;27.00;101101.00;;;;5033713;28;20636;-69
2023/08/29 12:41:54;;;;;;;0.10;0.10;;;22.50;99.90;27.30;101089.00;;;;5034852;28;20198;-68
2023/08/29 12:44:20;;;;;;;0.20;0.20;;;22.70;99.90;27.50;101055.00;;;;5033154;28;20198;-69
2023/08/29 12:46:46;;;;;;;0.10;0.10;;;22.90;99.90;27.80;101071.00;;;;5034638;28;20187;-69
2023/08/29 12:49:18;;;;;;;0.15;0.15;;;23.10;99.90;27.80;101073.00;;;;5033299;28;20187;-69
2023/08/29 12:51:44;;;;;;;0.10;0.10;;;23.30;99.90;28.20;101042.00;;;;5027944;28;20199;-69
2023/08/29 12:54:19;;;;;;;0.20;0.20;;;23.50;99.90;28.40;101009.00;;;;5032980;28;20190;-69
2023/08/29 12:56:46;;;;;;;0.57;0.57;;;23.70;99.90;28.20;101035.00;;;;5032251;28;20178;-68
2023/08/29 12:59:28;;;;;;;0.10;0.10;;;23.70;99.90;28.40;101007.00;;;;5033333;28;20186;-69
2023/08/29 13:02:05;;;;;;;0.10;0.10;;;23.80;99.90;28.40;101041.00;;;;5034009;28;20188;-71
2023/08/29 13:04:40;;;;;;;0.10;0.10;;;23.90;99.90;28.30;101001.00;;;;5032994;28;20244;-69
2023/08/29 13:07:14;;;;;;;0.10;0.10;;;23.90;99.90;28.80;101028.00;;;;5033940;28;20192;-69
2023/08/29 13:10:18;;;;;;;0.13;0.13;;;24.10;99.90;29.00;101026.00;;;;5029995;28;20183;-69
2023/08/29 13:12:50;;;;;;;0.10;0.10;;;24.30;99.90;28.40;101022.00;;;;5021237;28;20238;-69
2023/08/29 13:15:26;;;;;;;0.10;0.10;;;24.50;99.90;28.70;101032.00;;;;5034020;28;20195;-69
2023/08/29 13:17:53;;;;;;;0.10;0.10;;;24.40;99.90;28.50;101023.00;;;;5032805;28;20620;-69
2023/08/29 13:20:19;;;;;;;0.13;0.13;;;24.40;99.90;28.40;101039.00;;;;5032952;28;20237;-69
2023/08/29 13:23:00;;;;;;;0.10;0.10;;;24.20;99.90;28.80;101018.00;;;;5032609;28;20551;-69
2023/08/29 13:25:28;;;;;;;0.20;0.20;;;24.30;99.90;29.00;101017.00;;;;5018099;28;20181;-69
2023/08/29 13:27:57;;;;;;;0.10;0.10;;;24.30;99.90;28.60;101022.00;;;;5033645;28;20273;-68
2023/08/29 13:30:33;;;;;;;0.10;0.10;;;24.20;99.90;28.40;101030.00;;;;5032602;28;20189;-69
2023/08/29 13:33:06;;;;;;;0.10;0.10;;;24.00;99.90;28.60;100992.00;;;;5032529;28;20206;-69
2023/08/29 13:35:35;;;;;;;0.10;0.10;;;24.00;99.90;27.60;101009.00;;;;5029349;28;20196;-69
2023/08/29 13:38:11;;;;;;;0.13;0.13;;;23.70;99.90;27.60;101065.00;;;;5028692;28;20222;-69
2023/08/29 13:41:01;;;;;;;0.10;0.10;;;23.30;99.90;27.50;101071.00;;;;5030751;28;20199;-69
2023/08/29 13:43:36;;;;;;;3.00;0.35;;;23.10;99.90;26.80;101083.00;;;;5026368;28;20203;-68
2023/08/29 13:46:02;;;;;;;3.22;3.13;;;22.90;99.90;26.20;101092.00;;;;5032258;28;20179;-69
2023/08/29 13:48:27;;;;;;;0.95;0.95;;;22.40;99.90;25.90;101102.00;;;;5013121;28;20192;-69
2023/08/29 13:50:57;;;;;;;0.10;0.10;;;22.10;99.90;26.20;101094.00;;;;5032271;28;20179;-68
2023/08/29 13:53:25;;;;;;;0.20;0.20;;;21.90;99.90;26.20;101099.00;;;;5033604;28;20210;-69
2023/08/29 13:55:55;;;;;;;0.20;0.20;;;21.80;99.90;25.90;101101.00;;;;5031697;28;20179;-69
2023/08/29 13:58:20;;;;;;;0.20;0.20;;;21.70;99.90;26.10;101102.00;;;;5032157;28;20660;-68
2023/08/29 14:01:13;;;;;;;0.20;0.20;;;21.80;99.90;25.90;101099.00;;;;5032347;28;20183;-68
2023/08/29 14:03:59;;;;;;;0.20;0.20;;;21.60;99.90;25.60;101099.00;;;;5033312;28;20648;-68
2023/08/29 14:06:28;;;;;;;0.10;0.10;;;21.50;99.90;26.10;101092.00;;;;5028145;28;20243;-69
2023/08/29 14:08:56;;;;;;;0.10;0.10;;;21.50;99.90;26.30;101094.00;;;;5015578;28;20191;-69
2023/08/29 14:11:34;;;;;;;0.38;0.38;;;21.70;99.90;26.20;101080.00;;;;5031696;28;20278;-68
2023/08/29 14:14:06;;;;;;;0.10;0.10;;;21.90;99.90;26.50;101069.00;;;;5031778;28;20189;-69
2023/08/29 14:16:35;;;;;;;0.90;0.30;;;21.90;99.90;26.80;101061.00;;;;5032028;28;20317;-68
2023/08/29 14:19:05;;;;;;;0.20;0.20;;;22.10;99.90;26.80;101044.00;;;;5033116;28;20220;-68
2023/08/29 14:21:33;;;;;;;0.10;0.10;;;22.30;99.90;26.70;101047.00;;;;5031683;28;20228;-69
2023/08/29 14:23:59;;;;;;;0.20;0.20;;;22.40;99.90;26.70;101054.00;;;;5031924;28;20183;-68
2023/08/29 14:26:28;;;;;;;0.30;0.30;;;22.50;99.90;27.50;101020.00;;;;5033049;28;20626;-68
2023/08/29 14:29:33;;;;;;;0.10;0.10;;;22.80;99.90;27.80;100987.00;;;;5031708;28;20265;-69
2023/08/29 14:32:29;;;;;;;0.10;0.10;;;23.00;99.90;28.00;100978.00;;;;5023282;28;20244;-69
2023/08/29 14:35:07;;;;;;;0.45;0.45;;;23.40;99.90;27.60;101012.00;;;;5032036;28;20179;-68
2023/08/29 14:37:36;;;;;;;0.10;0.10;;;23.40;99.90;27.90;101013.00;;;;5031756;28;20285;-68
2023/08/29 14:40:03;;;;;;;0.73;0.73;;;23.50;99.90;28.00;101001.00;;;;5032710;28;20186;-69
2023/08/29 14:42:36;;;;;;;0.10;0.10;;;23.50;99.90;28.00;101009.00;;;;5031653;28;20198;-69
2023/08/29 14:45:02;;;;;;;0.10;0.10;;;23.50;99.90;28.20;101009.00;;;;5031881;28;20640;-68
2023/08/29 14:47:31;;;;;;;1.30;0.30;;;23.60;99.90;28.20;101008.00;;;;5031445;28;20599;-68
2023/08/29 14:49:57;;;;;;;0.10;0.10;;;23.70;99.90;28.30;101005.00;;;;5031707;28;20538;-69
2023/08/29 14:52:27;;;;;;;0.55;0.55;;;23.70;99.90;27.40;101027.00;;;;5031393;28;20285;-69
2023/08/29 14:54:56;;;;;;;0.10;0.10;;;23.40;99.90;28.00;101017.00;;;;5032723;28;20265;-68
2023/08/29 14:57:22;;;;;;;0.10;0.10;;;23.40;99.90;27.90;101023.00;;;;5030131;28;20587;-68
2023/08/29 14:59:48;;;;;;;0.28;0.28;;;23.40;99.90;27.30;101040.00;;;;5032758;28;20233;-69
2023/08/29 15:02:14;;;;;;;0.10;0.10;;;23.30;99.90;27.60;101027.00;;;;5031343;28;20187;-69
2023/08/29 15:04:43;;;;;;;0.10;0.10;;;23.30;99.90;27.70;101033.00;;;;5033004;28;20183;-68
2023/08/29 15:07:14;;;;;;;0.55;0.20;;;23.20;99.90;27.10;101043.00;;;;5032140;28;20245;-69
2023/08/29 15:10:00;;;;;;;0.15;0.15;;;23.10;99.90;26.50;101075.00;;;;5031733;28;20191;-69
2023/08/29 15:12:33;;;;;;;0.70;0.55;;;22.70;99.90;25.90;101068.00;;;;5029924;28;20438;-68
2023/08/29 15:15:00;;;;;;;0.52;0.52;;;22.30;99.90;25.90;101082.00;;;;5030212;28;20207;-69
2023/08/29 15:17:31;;;;;;;2.95;2.70;;;22.20;99.90;26.50;101031.00;;;;5032344;28;20236;-69
2023/08/29 15:19:57;;;;;;;0.13;0.13;;;22.20;99.90;25.70;101076.00;;;;5034300;28;20179;-68
2023/08/29 15:22:32;;;;;;;0.10;0.10;;;21.90;99.90;25.80;101070.00;;;;5035097;28;20616;-68
2023/08/29 15:25:09;;;;;;;0.10;0.10;;;22.00;99.90;25.80;101068.00;;;;5025794;28;20188;-68
2023/08/29 15:27:40;;;;;;;0.20;0.20;;;21.80;99.90;26.30;101049.00;;;;5035113;28;20226;-69
2023/08/29 15:30:10;;;;;;;0.20;0.20;;;22.10;99.90;24.80;101090.00;;;;5034686;28;20667;-69
2023/08/29 15:32:56;;;;;;;0.10;0.10;;;21.50;99.90;25.10;101070.00;;;;5031311;28;20207;-68
2023/08/29 15:35:31;;;;;;;1.65;0.90;;;21.20;99.90;25.90;101019.00;;;;5034224;28;20237;-69
2023/08/29 15:37:57;;;;;;;0.10;0.10;;;21.50;99.90;25.50;101065.00;;;;5034384;28;20187;-68
2023/08/29 15:40:29;;;;;;;0.10;0.10;;;21.60;99.90;26.00;101052.00;;;;5034832;28;20290;-68
2023/08/29 15:43:00;;;;;;;0.10;0.10;;;21.70;99.90;26.30;101041.00;;;;5010757;28;20633;-68
2023/08/29 15:45:47;;;;;;;0.10;0.10;;;21.90;99.90;26.00;101017.00;;;;5034688;28;20703;-69
2023/08/29 15:48:20;;;;;;;0.20;0.20;;;21.70;99.90;26.30;101009.00;;;;5034662;28;20649;-68
2023/08/29 15:50:46;;;;;;;0.10;0.10;;;21.90;99.90;26.40;101040.00;;;;5017417;28;20187;-68
2023/08/29 15:53:17;;;;;;;0.50;0.40;;;22.00;99.90;26.30;101046.00;;;;5014583;28;20195;-68
2023/08/29 15:55:45;;;;;;;0.17;0.17;;;22.00;99.90;26.10;101050.00;;;;5043324;28;20190;-68
2023/08/29 15:58:14;;;;;;;0.10;0.10;;;22.00;99.90;26.10;101038.00;;;;5018046;28;20238;-69
2023/08/29 16:00:43;;;;;;;0.30;0.30;;;22.00;99.90;26.60;101038.00;;;;5065275;28;20182;-69
2023/08/29 16:03:09;;;;;;;0.10;0.10;;;22.00;99.90;27.10;101021.00;;;;5023926;28;20256;-69
2023/08/29 16:05:36;;;;;;;0.10;0.10;;;22.40;99.90;26.00;101038.00;;;;5022462;28;20207;-68
2023/08/29 16:08:20;;;;;;;0.10;0.10;;;22.10;99.90;26.20;101037.00;;;;5034002;28;20650;-68
2023/08/29 16:10:55;;;;;;;0.10;0.10;;;21.90;99.90;26.50;101032.00;;;;5014727;28;20646;-68
2023/08/29 16:13:35;;;;;;;1.27;1.27;;;22.00;99.90;26.60;101031.00;;;;5031538;28;20268;-68
2023/08/29 16:16:04;;;;;;;0.10;0.10;;;22.10;99.90;26.50;101040.00;;;;5030958;28;20236;-68
2023/08/29 16:18:50;;;;;;;0.10;0.10;;;22.10;99.90;26.50;101020.00;;;;5033718;28;20181;-68
2023/08/29 16:21:19;;;;;;;0.10;0.10;;;21.90;99.90;26.70;101035.00;;;;5033825;28;20644;-69
2023/08/29 16:23:45;;;;;;;0.10;0.10;;;22.10;99.90;26.60;101039.00;;;;5053767;28;20179;-68
2023/08/29 16:26:20;;;;;;;0.10;0.10;;;22.20;99.90;26.20;101038.00;;;;5033884;28;20191;-68
2023/08/29 16:28:51;;;;;;;0.10;0.10;;;22.00;99.90;26.30;101039.00;;;;5026154;28;20190;-68
2023/08/29 16:31:25;;;;;;;0.17;0.17;;;21.90;99.90;26.60;101035.00;;;;5033493;28;20191;-68
2023/08/29 16:33:51;;;;;;;0.20;0.20;;;22.00;99.90;26.30;101046.00;;;;5033582;28;20210;-68
2023/08/29 16:36:20;;;;;;;0.20;0.20;;;21.90;99.90;26.40;101041.00;;;;5033404;28;20220;-69
2023/08/29 16:38:55;;;;;;;0.20;0.20;;;22.00;99.90;25.80;101057.00;;;;5034661;28;20190;-68
2023/08/29 16:41:46;;;;;;;0.10;0.10;;;21.80;99.90;25.80;101070.00;;;;5033667;28;20648;-68
2023/08/29 16:44:17;;;;;;;0.10;0.10;;;21.50;99.90;25.90;101054.00;;;;5033366;28;20191;-68
2023/08/29 16:46:43;;;;;;;0.20;0.20;;;21.60;99.90;26.20;101033.00;;;;5033589;28;20197;-68
2023/08/29 16:49:16;;;;;;;0.13;0.13;;;21.70;99.90;25.60;101055.00;;;;5013882;28;20649;-69
2023/08/29 16:51:42;;;;;;;0.20;0.20;;;21.50;99.90;25.70;101029.00;;;;5065477;28;20209;-68
2023/08/29 16:54:11;;;;;;;0.20;0.20;;;21.40;99.90;25.40;101031.00;;;;5033349;28;20186;-68
2023/08/29 16:56:38;;;;;;;0.10;0.10;;;21.20;99.90;26.00;101059.00;;;;5033719;28;20188;-69
2023/08/29 16:59:19;;;;;;;0.20;0.20;;;21.30;99.90;26.00;101061.00;;;;5033210;28;20190;-68
2023/08/29 17:01:54;;;;;;;0.15;0.15;;;21.50;99.90;25.80;101050.00;;;;5026430;28;20248;-69
2023/08/29 17:04:29;;;;;;;0.10;0.10;;;21.50;99.90;25.60;101050.00;;;;5027706;28;20187;-68
2023/08/29 17:06:58;;;;;;;0.10;0.10;;;21.40;99.90;25.90;101049.00;;;;5030219;28;20179;-68
2023/08/29 17:09:27;;;;;;;0.10;0.10;;;21.40;99.90;25.70;101040.00;;;;5045791;28;20187;-68
2023/08/29 17:11:53;;;;;;;0.10;0.10;;;21.20;99.90;25.60;101039.00;;;;5032866;28;20286;-69
2023/08/29 17:14:21;;;;;;;0.10;0.10;;;21.20;99.90;25.60;101013.00;;;;5032230;28;20823;-69
2023/08/29 17:16:47;;;;;;;0.10;0.10;;;21.20;99.90;24.90;101040.00;;;;5026928;28;20195;-68
2023/08/29 17:19:13;;;;;;;0.10;0.10;;;21.00;99.90;24.90;101032.00;;;;5033753;28;20191;-68
2023/08/29 17:21:48;;;;;;;0.20;0.20;;;20.90;99.90;24.90;101047.00;;;;5032734;28;20183;-68
2023/08/29 17:24:17;;;;;;;0.20;0.20;;;20.80;99.90;25.10;101045.00;;;;5032536;28;20313;-68
2023/08/29 17:26:48;;;;;;;0.10;0.10;;;20.70;99.90;25.30;101042.00;;;;5033829;28;20187;-68
2023/08/29 17:29:14;;;;;;;0.20;0.20;;;20.80;99.90;25.20;101045.00;;;;5030898;28;20186;-69
2023/08/29 17:31:39;;;;;;;2.60;0.22;;;20.70;99.90;25.00;101045.00;;;;5032460;28;20214;-69
2023/08/29 17:34:08;;;;;;;0.10;0.10;;;20.70;99.90;24.80;101050.00;;;;5033542;28;20186;-69
2023/08/29 17:36:38;;;;;;;0.10;0.10;;;20.50;99.90;24.80;101010.00;;;;5033788;28;20182;-68
2023/08/29 17:39:09;;;;;;;0.10;0.10;;;20.50;99.90;24.60;101049.00;;;;5032130;28;20572;-68
2023/08/29 17:41:42;;;;;;;0.10;0.10;;;20.40;99.90;25.10;101045.00;;;;5031949;28;20206;-68
2023/08/29 17:44:13;;;;;;;0.10;0.10;;;20.50;99.90;24.80;101033.00;;;;5033435;28;20228;-69
2023/08/29 17:46:42;;;;;;;0.10;0.10;;;20.50;99.90;24.50;101055.00;;;;5032416;28;20209;-68
2023/08/29 17:49:18;;;;;;;0.20;0.20;;;20.30;99.90;25.00;101030.00;;;;5031804;28;20182;-68
2023/08/29 17:51:50;;;;;;;0.17;0.17;;;20.30;99.90;24.80;101040.00;;;;5031804;28;20842;-69
2023/08/29 17:54:21;;;;;;;0.20;0.20;;;20.40;99.90;24.30;101056.00;;;;5032265;28;20217;-68
2023/08/29 17:56:48;;;;;;;0.15;0.15;;;20.10;99.90;24.40;101047.00;;;;5032154;28;20266;-68
2023/08/29 17:59:14;;;;;;;0.20;0.20;;;20.00;99.90;24.60;101053.00;;;;5033157;28;20183;-68
2023/08/29 18:01:51;;;;;;;0.20;0.20;;;20.00;99.90;24.40;101056.00;;;;5033164;28;20198;-68
2023/08/29 18:04:20;;;;;;;0.20;0.20;;;19.90;99.90;24.30;101064.00;;;;5031787;28;20304;-68
2023/08/29 18:06:46;;;;;;;0.20;0.20;;;19.90;99.90;24.30;101031.00;;;;5031673;28;20187;-68
2023/08/29 18:09:21;;;;;;;0.10;0.10;;;19.80;99.90;24.40;101065.00;;;;5033228;28;20182;-68
2023/08/29 18:14:36;;;;;;;0.20;0.20;;;19.80;99.90;24.00;101068.00;;;;5030362;28;20551;-68
2023/08/29 18:17:06;;;;;;;0.20;0.20;;;19.70;99.90;24.00;101041.00;;;;5015376;28;20186;-68
2023/08/29 18:19:32;;;;;;;0.20;0.20;;;19.70;99.90;23.70;101083.00;;;;5032926;28;20217;-68
2023/08/29 18:22:05;;;;;;;0.20;0.20;;;19.40;99.90;23.90;101033.00;;;;5033037;28;20202;-69
2023/08/29 18:24:31;;;;;;;0.20;0.20;;;19.40;99.90;24.00;101074.00;;;;5031732;28;20193;-68
2023/08/29 18:26:57;;;;;;;0.20;0.20;;;19.50;99.90;23.70;101079.00;;;;5032967;28;20190;-67